createdAt,value
2022-09-26T05:01:32.755Z,14.10
2022-09-26T05:14:09.200Z,14.12
2022-09-26T05:21:05.189Z,14.19
2022-09-26T05:26:40.192Z,14.15
2022-09-26T05:27:55.756Z,14.25
2022-09-26T05:37:02.935Z,14.32
2022-09-26T05:43:04.841Z,14.48
2022-09-26T05:54:35.020Z,14.69
2022-09-26T05:57:17.850Z,14.78
2022-09-26T06:00:45.865Z,14.84
2022-09-26T06:04:28.383Z,14.92
2022-09-26T06:07:52.425Z,15.02
2022-09-26T06:10:48.354Z,15.07
2022-09-26T06:16:56.698Z,15.22
2022-09-26T06:19:30.834Z,15.33
2022-09-26T06:22:18.914Z,15.46
2022-09-26T06:25:00.072Z,15.55
2022-09-26T06:36:02.546Z,15.78
2022-09-26T06:38:57.986Z,15.83
2022-09-26T07:01:29.770Z,15.83
2022-09-26T07:04:18.624Z,15.86
2022-09-26T07:07:08.529Z,15.92
2022-09-26T07:09:45.080Z,15.93
2022-09-26T07:12:36.194Z,15.95
2022-09-26T07:15:24.162Z,15.97
2022-09-26T07:17:53.522Z,15.95
2022-09-26T07:20:42.152Z,15.86
2022-09-26T07:23:27.568Z,15.73
2022-09-26T07:25:58.628Z,15.62
2022-09-26T07:28:35.878Z,15.50
2022-09-26T07:31:39.466Z,15.33
2022-09-26T07:34:57.952Z,15.17
2022-09-26T07:37:49.112Z,14.96
2022-09-26T07:53:30.652Z,14.20
2022-09-26T07:56:26.227Z,14.09
2022-09-26T07:59:04.683Z,14.02
2022-09-26T08:02:18.438Z,13.97
2022-09-26T08:05:19.237Z,13.88
2022-09-26T08:07:56.929Z,13.82
2022-09-26T08:11:43.386Z,13.77
2022-09-26T09:09:14.687Z,13.81
2022-09-26T09:12:45.547Z,13.78
2022-09-26T09:16:10.437Z,13.75
2022-09-26T09:19:15.673Z,13.75
2022-09-26T09:22:18.892Z,13.73
2022-09-26T09:29:10.536Z,13.74
2022-09-26T09:32:53.132Z,13.75
2022-09-26T09:36:14.991Z,13.78
2022-09-26T09:38:54.936Z,13.85
2022-09-26T10:38:19.399Z,17.27
2022-09-26T10:44:01.490Z,17.37
2022-09-26T10:51:54.568Z,17.51
2022-09-26T10:58:45.719Z,17.66
2022-09-26T11:02:17.604Z,17.75
2022-09-26T11:09:14.209Z,18.04
2022-09-26T11:12:30.367Z,18.30
2022-09-26T11:12:39.971Z,17.80
2022-09-26T11:23:54.031Z,18.59
2022-09-26T12:38:10.928Z,19.64
2022-09-26T12:40:56.986Z,19.58
2022-09-26T12:44:12.470Z,19.61
2022-09-26T12:47:24.853Z,19.64
2022-09-26T12:53:43.026Z,19.70
2022-09-26T12:56:41.991Z,19.75
2022-09-26T12:59:40.776Z,19.79
2022-09-26T13:02:48.117Z,19.76
2022-09-26T13:05:56.964Z,19.66
2022-09-26T13:08:34.802Z,19.51
2022-09-26T13:16:39.703Z,19.42
2022-09-26T13:32:40.063Z,19.22
2022-09-26T13:35:47.616Z,19.23
2022-09-26T13:38:46.020Z,19.22
2022-09-26T13:41:39.034Z,19.18
2022-09-26T13:44:48.508Z,19.21
2022-09-26T13:47:15.714Z,19.18
2022-09-26T13:50:31.571Z,19.09
2022-09-26T13:54:30.760Z,19.00
2022-09-26T13:58:17.553Z,18.96
2022-09-26T14:01:41.845Z,18.96
2022-09-26T15:43:34.504Z,17.41
2022-09-26T15:46:05.797Z,17.37
2022-09-26T15:48:42.511Z,17.35
2022-09-26T15:51:20.114Z,17.31
2022-09-26T16:02:28.415Z,17.04
2022-09-26T16:09:50.609Z,16.79
2022-09-26T16:12:23.216Z,16.71
2022-09-26T16:14:59.306Z,16.67
2022-09-26T16:17:35.467Z,16.63
2022-09-26T16:20:04.354Z,16.57
2022-09-26T16:22:39.395Z,16.51
2022-09-26T16:25:14.947Z,16.44
2022-09-26T16:27:41.724Z,16.38
2022-09-26T16:30:22.946Z,16.31
2022-09-26T16:32:54.713Z,16.24
2022-09-26T16:35:29.507Z,16.20
2022-09-26T16:38:24.494Z,16.13
2022-09-26T16:40:53.963Z,16.09
2022-09-26T16:43:31.820Z,16.05
2022-09-26T16:46:04.807Z,16.03
2022-09-26T16:48:50.934Z,16.01
2022-09-26T16:51:17.899Z,15.97
2022-09-26T16:54:13.159Z,15.95
2022-09-26T16:56:46.179Z,15.92
2022-09-26T16:59:31.777Z,15.90
2022-09-26T17:02:01.753Z,15.88
2022-09-26T17:04:33.974Z,15.87
2022-09-26T17:07:09.668Z,15.85
2022-09-26T17:09:41.777Z,15.84
2022-09-26T17:12:30.129Z,15.82
2022-09-26T17:15:00.169Z,15.81
2022-09-26T17:17:31.248Z,15.80
2022-09-26T17:20:05.565Z,15.79
2022-09-26T17:22:36.345Z,15.78
2022-09-26T17:25:04.968Z,15.77
2022-09-26T17:27:33.768Z,15.76
2022-09-26T17:30:04.399Z,15.74
2022-09-26T17:32:43.732Z,15.72
2022-09-26T17:35:16.615Z,15.70
2022-09-26T17:37:43.689Z,15.69
2022-09-26T17:40:22.616Z,15.68
2022-09-26T17:42:59.492Z,15.70
2022-09-26T17:45:33.951Z,15.69
2022-09-26T17:48:16.447Z,15.69
2022-09-26T17:50:56.250Z,15.69
2022-09-26T17:53:32.671Z,15.67
2022-09-26T17:56:05.858Z,15.67
2022-09-26T17:58:35.677Z,15.68
2022-09-26T18:01:11.090Z,15.67
2022-09-26T18:03:43.368Z,15.67
2022-09-26T18:06:11.608Z,15.68
2022-09-26T18:08:39.975Z,15.71
2022-09-26T18:11:14.617Z,15.72
2022-09-26T18:13:49.835Z,15.73
2022-09-26T18:16:17.913Z,15.74
2022-09-26T18:19:06.087Z,15.74
2022-09-26T18:21:35.095Z,15.76
2022-09-26T18:24:07.670Z,15.76
2022-09-26T18:26:48.024Z,15.77
2022-09-26T18:29:37.778Z,15.76
2022-09-26T18:32:25.020Z,15.75
2022-09-26T18:35:01.140Z,15.74
2022-09-26T18:37:36.986Z,15.73
2022-09-26T18:40:18.663Z,15.70
2022-09-26T18:46:45.852Z,15.63
2022-09-26T18:49:46.521Z,15.59
2022-09-26T18:52:15.921Z,15.56
2022-09-26T18:56:06.284Z,15.55
2022-09-26T18:58:23.740Z,15.52
2022-09-26T19:00:56.242Z,15.51
2022-09-26T19:03:24.900Z,15.49
2022-09-26T19:05:58.834Z,15.48
2022-09-26T19:08:33.640Z,15.47
2022-09-26T19:11:05.031Z,15.46
2022-09-26T19:13:34.497Z,15.44
2022-09-26T19:16:04.519Z,15.43
2022-09-26T19:18:31.666Z,15.41
2022-09-26T19:20:59.771Z,15.40
2022-09-26T19:23:33.443Z,15.38
2022-09-26T20:42:26.398Z,14.94
2022-09-26T23:52:44.881Z,14.30
